sensor_id;sensor_type;location;lat;lon;timestamp;temperature;humidity
23371;DHT22;11858;51.056;3.712;2023-07-13T00:01:51;16.60;99.90
23371;DHT22;11858;51.056;3.712;2023-07-13T00:04:18;16.70;99.90
23371;DHT22;11858;51.056;3.712;2023-07-13T00:06:45;16.60;99.90
23371;DHT22;11858;51.056;3.712;2023-07-13T00:09:12;16.70;99.90
23371;DHT22;11858;51.056;3.712;2023-07-13T00:11:39;16.70;99.90
23371;DHT22;11858;51.056;3.712;2023-07-13T00:14:05;16.60;99.90
23371;DHT22;11858;51.056;3.712;2023-07-13T00:16:31;16.70;99.90
23371;DHT22;11858;51.056;3.712;2023-07-13T00:18:56;16.70;99.90
23371;DHT22;11858;51.056;3.712;2023-07-13T00:21:22;16.80;99.90
23371;DHT22;11858;51.056;3.712;2023-07-13T00:23:48;16.70;99.90
23371;DHT22;11858;51.056;3.712;2023-07-13T00:26:14;16.60;99.90
23371;DHT22;11858;51.056;3.712;2023-07-13T00:28:40;16.40;99.90
23371;DHT22;11858;51.056;3.712;2023-07-13T00:31:08;16.40;99.90
23371;DHT22;11858;51.056;3.712;2023-07-13T00:33:34;16.30;99.90
23371;DHT22;11858;51.056;3.712;2023-07-13T00:35:59;16.30;99.90
23371;DHT22;11858;51.056;3.712;2023-07-13T00:38:25;16.40;99.90
23371;DHT22;11858;51.056;3.712;2023-07-13T00:40:50;16.50;99.90
23371;DHT22;11858;51.056;3.712;2023-07-13T00:43:21;16.40;99.90
23371;DHT22;11858;51.056;3.712;2023-07-13T00:48:21;16.40;99.90
23371;DHT22;11858;51.056;3.712;2023-07-13T00:50:51;16.40;99.90
23371;DHT22;11858;51.056;3.712;2023-07-13T00:53:19;16.30;99.90
23371;DHT22;11858;51.056;3.712;2023-07-13T00:55:46;16.20;99.90
23371;DHT22;11858;51.056;3.712;2023-07-13T00:58:13;16.20;99.90
23371;DHT22;11858;51.056;3.712;2023-07-13T01:00:39;16.10;99.90
23371;DHT22;11858;51.056;3.712;2023-07-13T01:03:05;16.10;99.90
23371;DHT22;11858;51.056;3.712;2023-07-13T01:05:33;16.20;99.90
23371;DHT22;11858;51.056;3.712;2023-07-13T01:08:01;16.30;99.90
23371;DHT22;11858;51.056;3.712;2023-07-13T01:10:27;16.20;99.90
23371;DHT22;11858;51.056;3.712;2023-07-13T01:12:53;16.30;99.90
23371;DHT22;11858;51.056;3.712;2023-07-13T01:15:47;16.20;99.90
23371;DHT22;11858;51.056;3.712;2023-07-13T01:18:17;16.30;99.90
23371;DHT22;11858;51.056;3.712;2023-07-13T01:20:56;16.30;99.90
23371;DHT22;11858;51.056;3.712;2023-07-13T01:23:23;16.20;99.90
23371;DHT22;11858;51.056;3.712;2023-07-13T01:25:50;16.30;99.90
23371;DHT22;11858;51.056;3.712;2023-07-13T01:28:17;16.20;99.90
23371;DHT22;11858;51.056;3.712;2023-07-13T01:30:43;16.00;99.90
23371;DHT22;11858;51.056;3.712;2023-07-13T01:33:15;16.20;99.90
23371;DHT22;11858;51.056;3.712;2023-07-13T01:35:41;16.20;99.90
23371;DHT22;11858;51.056;3.712;2023-07-13T01:38:07;16.10;99.90
23371;DHT22;11858;51.056;3.712;2023-07-13T01:40:34;16.20;99.90
23371;DHT22;11858;51.056;3.712;2023-07-13T01:43:01;16.10;99.90
23371;DHT22;11858;51.056;3.712;2023-07-13T01:45:27;16.20;99.90
23371;DHT22;11858;51.056;3.712;2023-07-13T01:47:52;16.10;99.90
23371;DHT22;11858;51.056;3.712;2023-07-13T01:50:18;15.90;99.90
23371;DHT22;11858;51.056;3.712;2023-07-13T01:52:43;15.90;99.90
23371;DHT22;11858;51.056;3.712;2023-07-13T01:55:09;15.90;99.90
23371;DHT22;11858;51.056;3.712;2023-07-13T01:57:35;15.90;99.90
23371;DHT22;11858;51.056;3.712;2023-07-13T02:00:03;15.90;99.90
23371;DHT22;11858;51.056;3.712;2023-07-13T02:02:30;15.80;99.90
23371;DHT22;11858;51.056;3.712;2023-07-13T02:04:56;15.80;99.90
23371;DHT22;11858;51.056;3.712;2023-07-13T02:07:22;15.90;99.90
23371;DHT22;11858;51.056;3.712;2023-07-13T02:09:47;15.80;99.90
23371;DHT22;11858;51.056;3.712;2023-07-13T02:12:13;15.90;99.90
23371;DHT22;11858;51.056;3.712;2023-07-13T02:14:39;16.00;99.90
23371;DHT22;11858;51.056;3.712;2023-07-13T02:17:05;16.10;99.90
23371;DHT22;11858;51.056;3.712;2023-07-13T02:19:31;16.00;99.90
23371;DHT22;11858;51.056;3.712;2023-07-13T02:21:56;16.10;99.90
23371;DHT22;11858;51.056;3.712;2023-07-13T02:24:22;16.20;99.90
23371;DHT22;11858;51.056;3.712;2023-07-13T02:26:47;16.00;99.90
23371;DHT22;11858;51.056;3.712;2023-07-13T02:29:13;16.00;99.90
23371;DHT22;11858;51.056;3.712;2023-07-13T02:31:39;16.00;99.90
23371;DHT22;11858;51.056;3.712;2023-07-13T02:34:05;16.00;99.90
23371;DHT22;11858;51.056;3.712;2023-07-13T02:36:31;15.90;99.90
23371;DHT22;11858;51.056;3.712;2023-07-13T02:39:02;15.80;99.90
23371;DHT22;11858;51.056;3.712;2023-07-13T02:41:28;15.70;99.90
23371;DHT22;11858;51.056;3.712;2023-07-13T02:43:54;15.60;99.90
23371;DHT22;11858;51.056;3.712;2023-07-13T02:46:28;15.70;99.90
23371;DHT22;11858;51.056;3.712;2023-07-13T02:48:54;15.90;99.90
23371;DHT22;11858;51.056;3.712;2023-07-13T02:51:20;15.90;99.90
23371;DHT22;11858;51.056;3.712;2023-07-13T02:53:45;15.90;99.90
23371;DHT22;11858;51.056;3.712;2023-07-13T02:56:11;15.80;99.90
23371;DHT22;11858;51.056;3.712;2023-07-13T02:58:36;15.70;99.90
23371;DHT22;11858;51.056;3.712;2023-07-13T03:01:08;15.80;99.90
23371;DHT22;11858;51.056;3.712;2023-07-13T03:03:34;15.70;99.90
23371;DHT22;11858;51.056;3.712;2023-07-13T03:06:02;15.80;99.90
23371;DHT22;11858;51.056;3.712;2023-07-13T03:08:29;15.60;99.90
23371;DHT22;11858;51.056;3.712;2023-07-13T03:11:06;15.70;99.90
23371;DHT22;11858;51.056;3.712;2023-07-13T03:13:32;15.70;99.90
23371;DHT22;11858;51.056;3.712;2023-07-13T03:15:58;15.70;99.90
23371;DHT22;11858;51.056;3.712;2023-07-13T03:18:26;15.60;99.90
23371;DHT22;11858;51.056;3.712;2023-07-13T03:20:52;15.50;99.90
23371;DHT22;11858;51.056;3.712;2023-07-13T03:23:18;15.70;99.90
23371;DHT22;11858;51.056;3.712;2023-07-13T03:25:44;15.70;99.90
23371;DHT22;11858;51.056;3.712;2023-07-13T03:28:14;15.90;99.90
23371;DHT22;11858;51.056;3.712;2023-07-13T03:30:40;16.00;99.90
23371;DHT22;11858;51.056;3.712;2023-07-13T03:33:06;15.90;99.90
23371;DHT22;11858;51.056;3.712;2023-07-13T03:35:32;16.00;99.90
23371;DHT22;11858;51.056;3.712;2023-07-13T03:37:59;16.10;99.90
23371;DHT22;11858;51.056;3.712;2023-07-13T03:40:26;16.10;99.90
23371;DHT22;11858;51.056;3.712;2023-07-13T03:42:52;16.10;99.90
23371;DHT22;11858;51.056;3.712;2023-07-13T03:45:18;16.10;99.90
23371;DHT22;11858;51.056;3.712;2023-07-13T03:47:44;16.10;99.90
23371;DHT22;11858;51.056;3.712;2023-07-13T03:50:10;16.10;99.90
23371;DHT22;11858;51.056;3.712;2023-07-13T03:52:36;16.00;99.90
23371;DHT22;11858;51.056;3.712;2023-07-13T03:55:01;15.90;99.90
23371;DHT22;11858;51.056;3.712;2023-07-13T03:57:27;15.90;99.90
23371;DHT22;11858;51.056;3.712;2023-07-13T03:59:53;15.90;99.90
23371;DHT22;11858;51.056;3.712;2023-07-13T04:02:18;15.90;99.90
23371;DHT22;11858;51.056;3.712;2023-07-13T04:04:44;15.90;99.90
23371;DHT22;11858;51.056;3.712;2023-07-13T04:07:10;16.00;99.90
23371;DHT22;11858;51.056;3.712;2023-07-13T04:09:36;16.00;99.90
23371;DHT22;11858;51.056;3.712;2023-07-13T04:12:01;16.10;99.90
23371;DHT22;11858;51.056;3.712;2023-07-13T04:14:27;16.20;99.90
23371;DHT22;11858;51.056;3.712;2023-07-13T04:16:53;16.20;99.90
23371;DHT22;11858;51.056;3.712;2023-07-13T04:19:20;16.30;99.90
23371;DHT22;11858;51.056;3.712;2023-07-13T04:21:46;16.30;99.90
23371;DHT22;11858;51.056;3.712;2023-07-13T04:24:12;16.20;99.90
23371;DHT22;11858;51.056;3.712;2023-07-13T04:26:38;16.20;99.90
23371;DHT22;11858;51.056;3.712;2023-07-13T04:29:05;16.20;99.90
23371;DHT22;11858;51.056;3.712;2023-07-13T04:31:31;16.20;99.90
23371;DHT22;11858;51.056;3.712;2023-07-13T04:33:57;16.30;99.90
23371;DHT22;11858;51.056;3.712;2023-07-13T04:36:23;16.30;99.90
23371;DHT22;11858;51.056;3.712;2023-07-13T04:38:52;16.40;99.90
23371;DHT22;11858;51.056;3.712;2023-07-13T04:41:20;16.30;99.90
23371;DHT22;11858;51.056;3.712;2023-07-13T04:43:46;16.10;99.90
23371;DHT22;11858;51.056;3.712;2023-07-13T04:46:13;16.20;99.90
23371;DHT22;11858;51.056;3.712;2023-07-13T04:48:39;16.30;99.90
23371;DHT22;11858;51.056;3.712;2023-07-13T04:51:05;16.30;99.90
23371;DHT22;11858;51.056;3.712;2023-07-13T04:53:31;16.40;99.90
23371;DHT22;11858;51.056;3.712;2023-07-13T04:55:58;16.40;99.90
23371;DHT22;11858;51.056;3.712;2023-07-13T04:58:24;16.50;99.90
23371;DHT22;11858;51.056;3.712;2023-07-13T05:00:50;16.60;99.90
23371;DHT22;11858;51.056;3.712;2023-07-13T05:03:16;16.60;99.90
23371;DHT22;11858;51.056;3.712;2023-07-13T05:05:42;16.60;99.90
23371;DHT22;11858;51.056;3.712;2023-07-13T05:08:08;16.60;99.90
23371;DHT22;11858;51.056;3.712;2023-07-13T05:10:35;16.70;99.90
23371;DHT22;11858;51.056;3.712;2023-07-13T05:13:01;16.70;99.90
23371;DHT22;11858;51.056;3.712;2023-07-13T05:15:26;16.70;99.90
23371;DHT22;11858;51.056;3.712;2023-07-13T05:17:52;16.70;99.90
23371;DHT22;11858;51.056;3.712;2023-07-13T05:20:19;16.70;99.90
23371;DHT22;11858;51.056;3.712;2023-07-13T05:22:45;16.80;99.90
23371;DHT22;11858;51.056;3.712;2023-07-13T05:25:14;16.80;99.90
23371;DHT22;11858;51.056;3.712;2023-07-13T05:27:40;17.00;99.90
23371;DHT22;11858;51.056;3.712;2023-07-13T05:30:06;17.00;99.90
23371;DHT22;11858;51.056;3.712;2023-07-13T05:32:33;17.00;99.90
23371;DHT22;11858;51.056;3.712;2023-07-13T05:34:58;17.10;99.90
23371;DHT22;11858;51.056;3.712;2023-07-13T05:37:24;17.30;99.90
23371;DHT22;11858;51.056;3.712;2023-07-13T05:39:49;17.30;99.90
23371;DHT22;11858;51.056;3.712;2023-07-13T05:42:15;17.30;99.90
23371;DHT22;11858;51.056;3.712;2023-07-13T05:44:41;17.20;99.90
23371;DHT22;11858;51.056;3.712;2023-07-13T05:47:06;17.30;99.90
23371;DHT22;11858;51.056;3.712;2023-07-13T05:49:32;17.40;99.90
23371;DHT22;11858;51.056;3.712;2023-07-13T05:51:58;17.40;99.90
23371;DHT22;11858;51.056;3.712;2023-07-13T05:54:23;17.50;99.90
23371;DHT22;11858;51.056;3.712;2023-07-13T05:56:49;17.50;99.90
23371;DHT22;11858;51.056;3.712;2023-07-13T05:59:15;17.60;99.90
23371;DHT22;11858;51.056;3.712;2023-07-13T06:01:41;17.70;99.90
23371;DHT22;11858;51.056;3.712;2023-07-13T06:04:06;17.70;99.90
23371;DHT22;11858;51.056;3.712;2023-07-13T06:06:32;17.70;99.90
23371;DHT22;11858;51.056;3.712;2023-07-13T06:08:58;17.60;99.90
23371;DHT22;11858;51.056;3.712;2023-07-13T06:11:25;17.80;99.90
23371;DHT22;11858;51.056;3.712;2023-07-13T06:13:51;17.90;99.90
23371;DHT22;11858;51.056;3.712;2023-07-13T06:16:18;18.10;99.90
23371;DHT22;11858;51.056;3.712;2023-07-13T06:18:43;18.00;99.90
23371;DHT22;11858;51.056;3.712;2023-07-13T06:21:14;18.00;99.90
23371;DHT22;11858;51.056;3.712;2023-07-13T06:23:40;18.20;99.90
23371;DHT22;11858;51.056;3.712;2023-07-13T06:26:06;18.20;99.90
23371;DHT22;11858;51.056;3.712;2023-07-13T06:28:34;18.30;99.90
23371;DHT22;11858;51.056;3.712;2023-07-13T06:31:00;18.40;99.90
23371;DHT22;11858;51.056;3.712;2023-07-13T06:33:27;18.30;99.90
23371;DHT22;11858;51.056;3.712;2023-07-13T06:35:53;18.40;99.90
23371;DHT22;11858;51.056;3.712;2023-07-13T06:38:20;18.40;99.90
23371;DHT22;11858;51.056;3.712;2023-07-13T06:40:47;18.50;99.90
23371;DHT22;11858;51.056;3.712;2023-07-13T06:43:13;18.50;99.90
23371;DHT22;11858;51.056;3.712;2023-07-13T06:45:47;18.60;99.90
23371;DHT22;11858;51.056;3.712;2023-07-13T06:48:17;18.70;99.90
23371;DHT22;11858;51.056;3.712;2023-07-13T06:50:43;18.70;99.90
23371;DHT22;11858;51.056;3.712;2023-07-13T06:53:10;18.70;99.90
23371;DHT22;11858;51.056;3.712;2023-07-13T06:55:36;18.80;99.90
23371;DHT22;11858;51.056;3.712;2023-07-13T06:58:01;18.90;99.90
23371;DHT22;11858;51.056;3.712;2023-07-13T07:00:27;19.00;99.90
23371;DHT22;11858;51.056;3.712;2023-07-13T07:02:52;18.90;99.90
23371;DHT22;11858;51.056;3.712;2023-07-13T07:05:18;19.00;99.90
23371;DHT22;11858;51.056;3.712;2023-07-13T07:07:51;19.00;99.90
23371;DHT22;11858;51.056;3.712;2023-07-13T07:10:17;19.00;99.90
23371;DHT22;11858;51.056;3.712;2023-07-13T07:12:43;19.10;99.90
23371;DHT22;11858;51.056;3.712;2023-07-13T07:15:09;19.40;99.90
23371;DHT22;11858;51.056;3.712;2023-07-13T07:17:34;19.60;99.90
23371;DHT22;11858;51.056;3.712;2023-07-13T07:20:00;19.50;99.90
23371;DHT22;11858;51.056;3.712;2023-07-13T07:22:25;19.30;99.90
23371;DHT22;11858;51.056;3.712;2023-07-13T07:24:53;19.20;99.90
23371;DHT22;11858;51.056;3.712;2023-07-13T07:27:19;19.20;99.90
23371;DHT22;11858;51.056;3.712;2023-07-13T07:29:45;19.30;99.90
23371;DHT22;11858;51.056;3.712;2023-07-13T07:32:10;19.60;99.90
23371;DHT22;11858;51.056;3.712;2023-07-13T07:34:36;19.80;99.90
23371;DHT22;11858;51.056;3.712;2023-07-13T07:37:02;19.50;99.90
23371;DHT22;11858;51.056;3.712;2023-07-13T07:39:28;19.60;99.90
23371;DHT22;11858;51.056;3.712;2023-07-13T07:41:54;19.80;99.90
23371;DHT22;11858;51.056;3.712;2023-07-13T07:44:19;19.80;99.90
23371;DHT22;11858;51.056;3.712;2023-07-13T07:46:45;20.00;99.90
23371;DHT22;11858;51.056;3.712;2023-07-13T07:49:10;20.20;99.90
23371;DHT22;11858;51.056;3.712;2023-07-13T07:51:37;20.20;99.90
23371;DHT22;11858;51.056;3.712;2023-07-13T07:54:03;20.30;99.90
23371;DHT22;11858;51.056;3.712;2023-07-13T07:56:30;20.30;99.90
23371;DHT22;11858;51.056;3.712;2023-07-13T07:58:55;20.40;99.90
23371;DHT22;11858;51.056;3.712;2023-07-13T08:01:22;20.50;99.90
23371;DHT22;11858;51.056;3.712;2023-07-13T08:03:47;20.50;99.90
23371;DHT22;11858;51.056;3.712;2023-07-13T08:06:13;20.70;99.90
23371;DHT22;11858;51.056;3.712;2023-07-13T08:08:39;21.10;99.90
23371;DHT22;11858;51.056;3.712;2023-07-13T08:11:08;21.40;99.90
23371;DHT22;11858;51.056;3.712;2023-07-13T08:13:34;21.80;99.90
23371;DHT22;11858;51.056;3.712;2023-07-13T08:16:00;21.50;99.90
23371;DHT22;11858;51.056;3.712;2023-07-13T08:18:25;21.50;99.90
23371;DHT22;11858;51.056;3.712;2023-07-13T08:20:53;21.70;99.90
23371;DHT22;11858;51.056;3.712;2023-07-13T08:23:21;22.00;99.90
23371;DHT22;11858;51.056;3.712;2023-07-13T08:25:54;21.80;99.90
23371;DHT22;11858;51.056;3.712;2023-07-13T08:28:21;21.70;99.90
23371;DHT22;11858;51.056;3.712;2023-07-13T08:30:46;21.50;99.90
23371;DHT22;11858;51.056;3.712;2023-07-13T08:33:16;21.60;99.90
23371;DHT22;11858;51.056;3.712;2023-07-13T08:35:41;22.10;99.90
23371;DHT22;11858;51.056;3.712;2023-07-13T08:38:07;22.60;99.90
23371;DHT22;11858;51.056;3.712;2023-07-13T08:40:34;23.10;99.90
23371;DHT22;11858;51.056;3.712;2023-07-13T08:42:59;23.20;99.90
23371;DHT22;11858;51.056;3.712;2023-07-13T08:45:38;23.10;99.90
23371;DHT22;11858;51.056;3.712;2023-07-13T08:48:19;23.70;99.90
23371;DHT22;11858;51.056;3.712;2023-07-13T08:53:16;23.50;99.90
23371;DHT22;11858;51.056;3.712;2023-07-13T08:55:42;23.70;99.90
23371;DHT22;11858;51.056;3.712;2023-07-13T08:58:13;23.10;99.90
23371;DHT22;11858;51.056;3.712;2023-07-13T09:01:15;23.20;99.90
23371;DHT22;11858;51.056;3.712;2023-07-13T09:06:23;23.90;99.90
23371;DHT22;11858;51.056;3.712;2023-07-13T09:08:59;23.70;99.90
23371;DHT22;11858;51.056;3.712;2023-07-13T09:14:23;25.90;99.90
23371;DHT22;11858;51.056;3.712;2023-07-13T09:16:52;26.40;99.90
23371;DHT22;11858;51.056;3.712;2023-07-13T09:19:24;26.50;99.90
23371;DHT22;11858;51.056;3.712;2023-07-13T09:21:53;27.20;99.90
23371;DHT22;11858;51.056;3.712;2023-07-13T09:24:32;27.20;99.90
23371;DHT22;11858;51.056;3.712;2023-07-13T09:27:03;27.20;99.90
23371;DHT22;11858;51.056;3.712;2023-07-13T09:29:34;26.50;99.90
23371;DHT22;11858;51.056;3.712;2023-07-13T09:32:06;26.30;99.90
23371;DHT22;11858;51.056;3.712;2023-07-13T09:34:33;26.80;99.90
23371;DHT22;11858;51.056;3.712;2023-07-13T09:36:59;26.50;99.90
23371;DHT22;11858;51.056;3.712;2023-07-13T09:39:30;27.00;99.90
23371;DHT22;11858;51.056;3.712;2023-07-13T09:47:20;25.90;99.90
23371;DHT22;11858;51.056;3.712;2023-07-13T09:49:54;26.60;99.90
23371;DHT22;11858;51.056;3.712;2023-07-13T09:52:21;26.50;99.90
23371;DHT22;11858;51.056;3.712;2023-07-13T09:54:49;26.50;99.90
23371;DHT22;11858;51.056;3.712;2023-07-13T09:57:18;26.00;99.90
23371;DHT22;11858;51.056;3.712;2023-07-13T09:59:48;26.30;99.90
23371;DHT22;11858;51.056;3.712;2023-07-13T10:02:30;27.00;99.90
23371;DHT22;11858;51.056;3.712;2023-07-13T10:05:00;26.90;99.90
23371;DHT22;11858;51.056;3.712;2023-07-13T10:07:26;27.50;99.90
23371;DHT22;11858;51.056;3.712;2023-07-13T10:09:57;26.60;99.90
23371;DHT22;11858;51.056;3.712;2023-07-13T10:12:24;26.30;99.90
23371;DHT22;11858;51.056;3.712;2023-07-13T10:14:55;25.60;99.90
23371;DHT22;11858;51.056;3.712;2023-07-13T10:17:30;25.70;99.90
23371;DHT22;11858;51.056;3.712;2023-07-13T10:20:03;25.80;99.90
23371;DHT22;11858;51.056;3.712;2023-07-13T10:22:44;26.20;99.90
23371;DHT22;11858;51.056;3.712;2023-07-13T10:25:19;26.10;99.90
23371;DHT22;11858;51.056;3.712;2023-07-13T10:27:46;25.30;99.90
23371;DHT22;11858;51.056;3.712;2023-07-13T10:30:34;25.60;99.90
23371;DHT22;11858;51.056;3.712;2023-07-13T10:33:10;24.90;99.90
23371;DHT22;11858;51.056;3.712;2023-07-13T10:35:37;24.50;99.90
23371;DHT22;11858;51.056;3.712;2023-07-13T10:38:13;24.50;99.90
23371;DHT22;11858;51.056;3.712;2023-07-13T10:40:42;24.30;99.90
23371;DHT22;11858;51.056;3.712;2023-07-13T10:43:20;24.00;99.90
23371;DHT22;11858;51.056;3.712;2023-07-13T10:45:47;24.20;99.90
23371;DHT22;11858;51.056;3.712;2023-07-13T10:48:17;23.80;99.90
23371;DHT22;11858;51.056;3.712;2023-07-13T10:50:45;23.20;99.90
23371;DHT22;11858;51.056;3.712;2023-07-13T11:00:53;20.00;99.90
23371;DHT22;11858;51.056;3.712;2023-07-13T11:03:22;19.60;99.90
23371;DHT22;11858;51.056;3.712;2023-07-13T11:05:49;19.40;99.90
23371;DHT22;11858;51.056;3.712;2023-07-13T11:08:32;19.30;99.90
23371;DHT22;11858;51.056;3.712;2023-07-13T11:10:59;19.00;99.90
23371;DHT22;11858;51.056;3.712;2023-07-13T11:16:43;18.90;99.90
23371;DHT22;11858;51.056;3.712;2023-07-13T11:22:10;19.10;99.90
23371;DHT22;11858;51.056;3.712;2023-07-13T11:24:56;19.20;99.90
23371;DHT22;11858;51.056;3.712;2023-07-13T11:27:43;19.50;99.90
23371;DHT22;11858;51.056;3.712;2023-07-13T11:33:19;19.80;99.90
23371;DHT22;11858;51.056;3.712;2023-07-13T11:35:58;20.10;99.90
23371;DHT22;11858;51.056;3.712;2023-07-13T11:38:32;20.60;99.90
23371;DHT22;11858;51.056;3.712;2023-07-13T11:41:02;21.40;99.90
23371;DHT22;11858;51.056;3.712;2023-07-13T11:43:29;21.90;99.90
23371;DHT22;11858;51.056;3.712;2023-07-13T11:45:54;22.60;99.90
23371;DHT22;11858;51.056;3.712;2023-07-13T11:48:28;22.90;99.90
23371;DHT22;11858;51.056;3.712;2023-07-13T11:51:02;23.30;99.90
23371;DHT22;11858;51.056;3.712;2023-07-13T11:53:38;23.50;99.90
23371;DHT22;11858;51.056;3.712;2023-07-13T11:56:05;24.30;99.90
23371;DHT22;11858;51.056;3.712;2023-07-13T11:58:31;24.90;99.90
23371;DHT22;11858;51.056;3.712;2023-07-13T12:00:59;25.50;99.90
23371;DHT22;11858;51.056;3.712;2023-07-13T12:03:27;25.20;99.90
23371;DHT22;11858;51.056;3.712;2023-07-13T12:06:04;24.80;99.90
23371;DHT22;11858;51.056;3.712;2023-07-13T12:08:39;24.50;99.90
23371;DHT22;11858;51.056;3.712;2023-07-13T12:11:14;24.00;99.90
23371;DHT22;11858;51.056;3.712;2023-07-13T12:13:40;23.90;99.90
23371;DHT22;11858;51.056;3.712;2023-07-13T12:16:15;24.10;99.90
23371;DHT22;11858;51.056;3.712;2023-07-13T12:18:42;23.90;99.90
23371;DHT22;11858;51.056;3.712;2023-07-13T12:21:13;24.40;99.90
23371;DHT22;11858;51.056;3.712;2023-07-13T12:23:40;24.90;99.90
23371;DHT22;11858;51.056;3.712;2023-07-13T12:26:10;25.00;99.90
23371;DHT22;11858;51.056;3.712;2023-07-13T12:34:01;25.80;99.90
23371;DHT22;11858;51.056;3.712;2023-07-13T12:36:31;27.00;99.90
23371;DHT22;11858;51.056;3.712;2023-07-13T12:39:03;27.40;99.90
23371;DHT22;11858;51.056;3.712;2023-07-13T12:41:30;27.50;99.90
23371;DHT22;11858;51.056;3.712;2023-07-13T12:43:56;27.00;99.90
23371;DHT22;11858;51.056;3.712;2023-07-13T12:46:24;26.40;99.90
23371;DHT22;11858;51.056;3.712;2023-07-13T12:48:54;26.30;99.90
23371;DHT22;11858;51.056;3.712;2023-07-13T12:51:25;26.70;99.90
23371;DHT22;11858;51.056;3.712;2023-07-13T12:54:05;26.40;99.90
23371;DHT22;11858;51.056;3.712;2023-07-13T12:56:33;26.20;99.90
23371;DHT22;11858;51.056;3.712;2023-07-13T12:59:02;26.20;99.90
23371;DHT22;11858;51.056;3.712;2023-07-13T13:01:31;25.90;99.90
23371;DHT22;11858;51.056;3.712;2023-07-13T13:04:01;25.50;99.90
23371;DHT22;11858;51.056;3.712;2023-07-13T13:06:29;25.40;99.90
23371;DHT22;11858;51.056;3.712;2023-07-13T13:08:57;25.70;99.90
23371;DHT22;11858;51.056;3.712;2023-07-13T13:11:28;26.00;99.90
23371;DHT22;11858;51.056;3.712;2023-07-13T13:13:54;26.60;99.90
23371;DHT22;11858;51.056;3.712;2023-07-13T13:18:53;27.30;99.90
23371;DHT22;11858;51.056;3.712;2023-07-13T13:21:20;27.50;99.90
23371;DHT22;11858;51.056;3.712;2023-07-13T13:23:46;27.50;99.90
23371;DHT22;11858;51.056;3.712;2023-07-13T13:26:14;26.70;99.90
23371;DHT22;11858;51.056;3.712;2023-07-13T13:28:41;26.60;99.90
23371;DHT22;11858;51.056;3.712;2023-07-13T13:31:08;26.80;99.90
23371;DHT22;11858;51.056;3.712;2023-07-13T13:33:38;27.00;99.90
23371;DHT22;11858;51.056;3.712;2023-07-13T13:36:21;27.20;99.90
23371;DHT22;11858;51.056;3.712;2023-07-13T13:38:49;27.10;99.90
23371;DHT22;11858;51.056;3.712;2023-07-13T13:41:15;27.30;99.90
23371;DHT22;11858;51.056;3.712;2023-07-13T13:43:41;27.20;99.90
23371;DHT22;11858;51.056;3.712;2023-07-13T13:46:16;27.20;99.90
23371;DHT22;11858;51.056;3.712;2023-07-13T13:48:43;27.00;99.90
23371;DHT22;11858;51.056;3.712;2023-07-13T13:51:20;26.60;99.90
23371;DHT22;11858;51.056;3.712;2023-07-13T13:53:47;26.50;99.90
23371;DHT22;11858;51.056;3.712;2023-07-13T13:56:14;27.20;99.90
23371;DHT22;11858;51.056;3.712;2023-07-13T13:58:40;27.50;99.90
23371;DHT22;11858;51.056;3.712;2023-07-13T14:01:15;27.90;99.90
23371;DHT22;11858;51.056;3.712;2023-07-13T14:03:41;27.40;99.90
23371;DHT22;11858;51.056;3.712;2023-07-13T14:06:12;27.90;99.90
23371;DHT22;11858;51.056;3.712;2023-07-13T14:08:38;28.90;99.90
23371;DHT22;11858;51.056;3.712;2023-07-13T14:11:04;29.10;99.90
23371;DHT22;11858;51.056;3.712;2023-07-13T14:13:39;29.70;99.90
23371;DHT22;11858;51.056;3.712;2023-07-13T14:16:17;30.00;99.90
23371;DHT22;11858;51.056;3.712;2023-07-13T14:18:47;29.60;99.90
23371;DHT22;11858;51.056;3.712;2023-07-13T14:21:14;29.40;99.90
23371;DHT22;11858;51.056;3.712;2023-07-13T14:23:40;29.20;99.90
23371;DHT22;11858;51.056;3.712;2023-07-13T14:26:17;29.00;99.90
23371;DHT22;11858;51.056;3.712;2023-07-13T14:28:45;29.10;99.90
23371;DHT22;11858;51.056;3.712;2023-07-13T14:31:13;28.90;99.90
23371;DHT22;11858;51.056;3.712;2023-07-13T14:33:39;28.90;99.90
23371;DHT22;11858;51.056;3.712;2023-07-13T14:36:29;28.80;99.90
23371;DHT22;11858;51.056;3.712;2023-07-13T14:38:57;29.00;99.90
23371;DHT22;11858;51.056;3.712;2023-07-13T14:41:23;29.00;99.90
23371;DHT22;11858;51.056;3.712;2023-07-13T14:43:49;28.80;99.90
23371;DHT22;11858;51.056;3.712;2023-07-13T14:46:32;28.80;99.90
23371;DHT22;11858;51.056;3.712;2023-07-13T14:49:12;29.50;99.90
23371;DHT22;11858;51.056;3.712;2023-07-13T14:51:38;29.10;99.90
23371;DHT22;11858;51.056;3.712;2023-07-13T14:54:07;29.00;99.90
23371;DHT22;11858;51.056;3.712;2023-07-13T14:56:34;29.50;99.90
23371;DHT22;11858;51.056;3.712;2023-07-13T14:59:00;29.20;99.90
23371;DHT22;11858;51.056;3.712;2023-07-13T15:01:26;28.20;99.90
23371;DHT22;11858;51.056;3.712;2023-07-13T15:03:52;27.00;99.90
23371;DHT22;11858;51.056;3.712;2023-07-13T15:06:19;26.50;99.90
23371;DHT22;11858;51.056;3.712;2023-07-13T15:08:45;26.10;99.90
23371;DHT22;11858;51.056;3.712;2023-07-13T15:11:11;26.00;99.90
23371;DHT22;11858;51.056;3.712;2023-07-13T15:13:38;26.10;99.90
23371;DHT22;11858;51.056;3.712;2023-07-13T15:16:05;25.80;99.90
23371;DHT22;11858;51.056;3.712;2023-07-13T15:18:36;26.10;99.90
23371;DHT22;11858;51.056;3.712;2023-07-13T15:21:10;26.00;99.90
23371;DHT22;11858;51.056;3.712;2023-07-13T15:23:39;26.00;99.90
23371;DHT22;11858;51.056;3.712;2023-07-13T15:26:04;26.40;99.90
23371;DHT22;11858;51.056;3.712;2023-07-13T15:28:32;27.40;99.90
23371;DHT22;11858;51.056;3.712;2023-07-13T15:30:57;27.60;99.90
23371;DHT22;11858;51.056;3.712;2023-07-13T15:33:27;28.00;99.90
23371;DHT22;11858;51.056;3.712;2023-07-13T15:35:53;28.60;99.90
23371;DHT22;11858;51.056;3.712;2023-07-13T15:38:26;29.30;99.90
23371;DHT22;11858;51.056;3.712;2023-07-13T15:40:53;30.10;99.90
23371;DHT22;11858;51.056;3.712;2023-07-13T15:43:19;30.40;99.90
23371;DHT22;11858;51.056;3.712;2023-07-13T15:45:46;30.60;99.90
23371;DHT22;11858;51.056;3.712;2023-07-13T15:48:15;30.80;99.90
23371;DHT22;11858;51.056;3.712;2023-07-13T15:50:50;31.00;99.90
23371;DHT22;11858;51.056;3.712;2023-07-13T15:53:25;30.40;99.90
23371;DHT22;11858;51.056;3.712;2023-07-13T15:55:53;30.40;99.90
23371;DHT22;11858;51.056;3.712;2023-07-13T15:58:19;31.00;99.90
23371;DHT22;11858;51.056;3.712;2023-07-13T16:00:45;30.30;99.80
23371;DHT22;11858;51.056;3.712;2023-07-13T16:03:11;29.00;99.90
23371;DHT22;11858;51.056;3.712;2023-07-13T16:05:38;28.10;99.90
23371;DHT22;11858;51.056;3.712;2023-07-13T16:08:05;27.60;99.90
23371;DHT22;11858;51.056;3.712;2023-07-13T16:10:34;27.10;99.90
23371;DHT22;11858;51.056;3.712;2023-07-13T16:13:01;27.40;99.90
23371;DHT22;11858;51.056;3.712;2023-07-13T16:15:27;28.30;99.90
23371;DHT22;11858;51.056;3.712;2023-07-13T16:17:52;28.80;99.90